ASA213 PHLI-KSEA
Flight info
| Callsign | ASA213 |
|---|---|
| Flight time | 5h 36m |
| Altitude | 33000 |
| Route | LIH V15 ZIKAB ZIGIE ZOULU A331 ZEMOM/N0449F350 A331 SEDAR LATAY HAWKZ8 |
| Aircraft | B739/M-SDE2E3FGHIRWXY/LB1 |
Departure
| Time | 2026-05-08 21:55 |
|---|---|
| Airport | Lihue Airport (PHLI) |
Arrival
| Time | 2026-05-09 03:32 |
|---|---|
| Airport | Seattle–Tacoma International Airport (KSEA) |
| Time | Latitude | Longitude | Altitude | Speed | Heading |
|---|---|---|---|---|---|
| 2026-05-08 21:43 | 21.97776 | -159.34829 | 161 ft | 0 kts | 10° |
| 2026-05-08 21:49 | 21.97773 | -159.34829 | 161 ft | 1 kts | 10° |
| 2026-05-08 21:49 | 21.97757 | -159.34832 | 161 ft | 2 kts | 10° |
| 2026-05-08 21:50 | 21.97742 | -159.34835 | 161 ft | 2 kts | 10° |
| 2026-05-08 21:50 | 21.97725 | -159.34838 | 161 ft | 1 kts | 10° |
| 2026-05-08 21:50 | 21.97709 | -159.34841 | 161 ft | 1 kts | 10° |
| 2026-05-08 21:50 | 21.97693 | -159.34844 | 161 ft | 1 kts | 10° |
| 2026-05-08 21:51 | 21.97687 | -159.34846 | 161 ft | 1 kts | 10° |
| 2026-05-08 21:53 | 21.97696 | -159.34852 | 161 ft | 4 kts | 302° |
| 2026-05-08 21:53 | 21.97698 | -159.34859 | 161 ft | 7 kts | 291° |
| 2026-05-08 21:53 | 21.97676 | -159.34877 | 161 ft | 10 kts | 193° |
| 2026-05-08 21:54 | 21.97577 | -159.34852 | 161 ft | 18 kts | 129° |
| 2026-05-08 21:54 | 21.97481 | -159.34764 | 161 ft | 17 kts | 135° |
| 2026-05-08 21:54 | 21.97526 | -159.34629 | 161 ft | 42 kts | 50° |
| 2026-05-08 21:54 | 21.97919 | -159.34218 | 162 ft | 114 kts | 49° |
| 2026-05-08 21:55 | 21.98618 | -159.33456 | 312 ft | 161 kts | 46° |
| 2026-05-08 21:55 | 21.99398 | -159.32578 | 1205 ft | 158 kts | 47° |
| 2026-05-08 21:55 | 22.00006 | -159.31546 | 1954 ft | 174 kts | 73° |
| 2026-05-08 21:56 | 21.99241 | -159.28802 | 2669 ft | 228 kts | 127° |
| 2026-05-08 21:56 | 21.98171 | -159.27424 | 3132 ft | 251 kts | 128° |
| 2026-05-08 21:56 | 21.97013 | -159.25914 | 3873 ft | 265 kts | 129° |
| 2026-05-08 21:56 | 21.95837 | -159.24391 | 4811 ft | 269 kts | 129° |
| 2026-05-08 21:57 | 21.94624 | -159.22820 | 5750 ft | 274 kts | 129° |
| 2026-05-08 21:57 | 21.93387 | -159.21225 | 6671 ft | 278 kts | 130° |
| 2026-05-08 21:57 | 21.92155 | -159.19640 | 7561 ft | 281 kts | 130° |
| 2026-05-08 21:57 | 21.90890 | -159.18011 | 8423 ft | 286 kts | 129° |
| 2026-05-08 21:58 | 21.89608 | -159.16361 | 9271 ft | 290 kts | 130° |
| 2026-05-08 21:58 | 21.88310 | -159.14690 | 10128 ft | 293 kts | 130° |
| 2026-05-08 21:58 | 21.86980 | -159.12980 | 10887 ft | 300 kts | 130° |
| 2026-05-08 21:58 | 21.85622 | -159.11232 | 11376 ft | 316 kts | 129° |
| 2026-05-08 21:59 | 21.84171 | -159.09365 | 11741 ft | 334 kts | 130° |
| 2026-05-08 21:59 | 21.82631 | -159.07388 | 12072 ft | 352 kts | 130° |
| 2026-05-08 21:59 | 21.81037 | -159.05339 | 12436 ft | 367 kts | 130° |
| 2026-05-08 21:59 | 21.79396 | -159.03150 | 12952 ft | 376 kts | 126° |
| 2026-05-08 22:00 | 21.78017 | -159.00729 | 13574 ft | 380 kts | 113° |
| 2026-05-08 22:00 | 21.77348 | -158.98020 | 14195 ft | 383 kts | 96° |
| 2026-05-08 22:00 | 21.77485 | -158.95132 | 14820 ft | 386 kts | 78° |
| 2026-05-08 22:00 | 21.78426 | -158.92441 | 15415 ft | 389 kts | 60° |
| 2026-05-08 22:01 | 21.80107 | -158.90138 | 16012 ft | 392 kts | 43° |
| 2026-05-08 22:01 | 21.82320 | -158.88486 | 16596 ft | 395 kts | 27° |
| 2026-05-08 22:01 | 21.84871 | -158.87299 | 17196 ft | 398 kts | 21° |
| 2026-05-08 22:01 | 21.87429 | -158.86187 | 17752 ft | 401 kts | 22° |
| 2026-05-08 22:02 | 21.89995 | -158.84977 | 18294 ft | 405 kts | 25° |
| 2026-05-08 22:02 | 21.92548 | -158.83658 | 18825 ft | 408 kts | 27° |
| 2026-05-08 22:02 | 21.95066 | -158.82245 | 19339 ft | 411 kts | 28° |
| 2026-05-08 22:02 | 21.97600 | -158.80729 | 19847 ft | 415 kts | 29° |
| 2026-05-08 22:03 | 22.00100 | -158.79170 | 20317 ft | 418 kts | 30° |
| 2026-05-08 22:03 | 22.02623 | -158.77572 | 20784 ft | 421 kts | 30° |
| 2026-05-08 22:03 | 22.05159 | -158.75964 | 21237 ft | 424 kts | 30° |
| 2026-05-08 22:03 | 22.07686 | -158.74362 | 21679 ft | 427 kts | 30° |
| 2026-05-08 22:04 | 22.10250 | -158.72733 | 22108 ft | 430 kts | 30° |
| 2026-05-08 22:04 | 22.12853 | -158.71074 | 22530 ft | 432 kts | 30° |
| 2026-05-08 22:04 | 22.15432 | -158.69428 | 22927 ft | 435 kts | 31° |
| 2026-05-08 22:04 | 22.18060 | -158.67748 | 23307 ft | 438 kts | 31° |
| 2026-05-08 22:05 | 22.20679 | -158.66071 | 23690 ft | 440 kts | 30° |
| 2026-05-08 22:05 | 22.23293 | -158.64396 | 24044 ft | 442 kts | 31° |
| 2026-05-08 22:05 | 22.25944 | -158.62697 | 24397 ft | 445 kts | 31° |
| 2026-05-08 22:05 | 22.28633 | -158.60972 | 24734 ft | 447 kts | 31° |
| 2026-05-08 22:06 | 22.31299 | -158.59261 | 25057 ft | 449 kts | 30° |
| 2026-05-08 22:06 | 22.34006 | -158.57522 | 25365 ft | 452 kts | 31° |
| 2026-05-08 22:06 | 22.36711 | -158.55785 | 25664 ft | 454 kts | 31° |
| 2026-05-08 22:06 | 22.39419 | -158.54044 | 25955 ft | 456 kts | 31° |
| 2026-05-08 22:07 | 22.42178 | -158.52270 | 26242 ft | 458 kts | 31° |
| 2026-05-08 22:07 | 22.44889 | -158.50525 | 26516 ft | 460 kts | 30° |
| 2026-05-08 22:07 | 22.47667 | -158.48736 | 26783 ft | 462 kts | 30° |
| 2026-05-08 22:07 | 22.49518 | -158.47545 | 26956 ft | 463 kts | 31° |
| 2026-05-08 22:08 | 22.52288 | -158.45760 | 27202 ft | 465 kts | 31° |
| 2026-05-08 22:08 | 22.55062 | -158.43972 | 27444 ft | 467 kts | 30° |
| 2026-05-08 22:08 | 22.57865 | -158.42164 | 27684 ft | 468 kts | 31° |
| 2026-05-08 22:08 | 22.60630 | -158.40381 | 27909 ft | 470 kts | 31° |
| 2026-05-08 22:09 | 22.63451 | -158.38559 | 28128 ft | 471 kts | 31° |
| 2026-05-08 22:09 | 22.66280 | -158.36732 | 28343 ft | 473 kts | 31° |
| 2026-05-08 22:09 | 22.69105 | -158.34907 | 28556 ft | 474 kts | 31° |
| 2026-05-08 22:09 | 22.71957 | -158.33064 | 28852 ft | 473 kts | 30° |
| 2026-05-08 22:10 | 22.74785 | -158.31235 | 29157 ft | 472 kts | 30° |
| 2026-05-08 22:10 | 22.77586 | -158.29423 | 29427 ft | 472 kts | 31° |
| 2026-05-08 22:10 | 22.80388 | -158.27608 | 29706 ft | 472 kts | 31° |
| 2026-05-08 22:10 | 22.83191 | -158.25793 | 30006 ft | 470 kts | 31° |
| 2026-05-08 22:11 | 22.86020 | -158.23960 | 30263 ft | 470 kts | 31° |
| 2026-05-08 22:11 | 22.88827 | -158.22140 | 30516 ft | 470 kts | 31° |
| 2026-05-08 22:11 | 22.91621 | -158.20328 | 30789 ft | 469 kts | 31° |
| 2026-05-08 22:11 | 22.94449 | -158.18494 | 31050 ft | 469 kts | 31° |
| 2026-05-08 22:12 | 22.97235 | -158.16684 | 31306 ft | 468 kts | 31° |
| 2026-05-08 22:12 | 23.00049 | -158.14856 | 31560 ft | 468 kts | 31° |
| 2026-05-08 22:12 | 23.02807 | -158.13064 | 31806 ft | 467 kts | 31° |
| 2026-05-08 22:12 | 23.05610 | -158.11241 | 32052 ft | 467 kts | 31° |
| 2026-05-08 22:13 | 23.08406 | -158.09423 | 32294 ft | 467 kts | 31° |
| 2026-05-08 22:13 | 23.11192 | -158.07610 | 32532 ft | 466 kts | 31° |
| 2026-05-08 22:13 | 23.13944 | -158.05818 | 32764 ft | 466 kts | 31° |
| 2026-05-08 22:13 | 23.16745 | -158.03993 | 32936 ft | 467 kts | 31° |
| 2026-05-08 22:14 | 23.19535 | -158.02174 | 32960 ft | 468 kts | 31° |
| 2026-05-08 22:14 | 23.25081 | -157.98557 | 32961 ft | 466 kts | 31° |
| 2026-05-08 22:15 | 23.30614 | -157.94944 | 32962 ft | 465 kts | 31° |
| 2026-05-08 22:15 | 23.36184 | -157.91304 | 32962 ft | 465 kts | 31° |
| 2026-05-08 22:16 | 23.41736 | -157.87671 | 32962 ft | 465 kts | 31° |
| 2026-05-08 22:16 | 23.47279 | -157.84042 | 32962 ft | 465 kts | 31° |
| 2026-05-08 22:17 | 23.52842 | -157.80395 | 32962 ft | 465 kts | 31° |
| 2026-05-08 22:17 | 23.58366 | -157.76770 | 32962 ft | 465 kts | 31° |
| 2026-05-08 22:18 | 23.63907 | -157.73131 | 32961 ft | 465 kts | 31° |
| 2026-05-08 22:18 | 23.69465 | -157.69477 | 32962 ft | 465 kts | 31° |
| 2026-05-08 22:19 | 23.75001 | -157.65833 | 32962 ft | 465 kts | 31° |
| 2026-05-08 22:19 | 23.80515 | -157.62201 | 32962 ft | 464 kts | 31° |
| 2026-05-08 22:20 | 23.86020 | -157.58570 | 32962 ft | 464 kts | 31° |
| 2026-05-08 22:20 | 23.91566 | -157.54909 | 32962 ft | 464 kts | 31° |
| 2026-05-08 22:21 | 23.97084 | -157.51263 | 32962 ft | 464 kts | 31° |
| 2026-05-08 22:21 | 24.02621 | -157.47600 | 32962 ft | 464 kts | 31° |
| 2026-05-08 22:22 | 24.08157 | -157.43947 | 32961 ft | 464 kts | 31° |
| 2026-05-08 22:22 | 24.13690 | -157.40279 | 32962 ft | 464 kts | 31° |
| 2026-05-08 22:23 | 24.19196 | -157.36621 | 32962 ft | 464 kts | 31° |
| 2026-05-08 22:23 | 24.24702 | -157.32958 | 32961 ft | 464 kts | 31° |
| 2026-05-08 22:24 | 24.30230 | -157.29233 | 32961 ft | 464 kts | 34° |
| 2026-05-08 22:24 | 24.35262 | -157.24831 | 32962 ft | 464 kts | 41° |
| 2026-05-08 22:25 | 24.40082 | -157.20100 | 32962 ft | 464 kts | 41° |
| 2026-05-08 22:25 | 24.44888 | -157.15397 | 32962 ft | 464 kts | 41° |
| 2026-05-08 22:26 | 24.49721 | -157.10676 | 32962 ft | 464 kts | 41° |
| 2026-05-08 22:26 | 24.54525 | -157.05982 | 32962 ft | 464 kts | 41° |
| 2026-05-08 22:27 | 24.59363 | -157.01274 | 32961 ft | 464 kts | 41° |
| 2026-05-08 22:27 | 24.64191 | -156.96575 | 32962 ft | 464 kts | 41° |
| 2026-05-08 22:28 | 24.69044 | -156.91837 | 32962 ft | 464 kts | 41° |
| 2026-05-08 22:28 | 24.73838 | -156.87146 | 32962 ft | 464 kts | 41° |
| 2026-05-08 22:29 | 24.78704 | -156.82380 | 32962 ft | 464 kts | 41° |
| 2026-05-08 22:29 | 24.83488 | -156.77688 | 32962 ft | 464 kts | 41° |
| 2026-05-08 22:30 | 24.88329 | -156.72935 | 32962 ft | 464 kts | 41° |
| 2026-05-08 22:30 | 24.93123 | -156.68222 | 32962 ft | 464 kts | 41° |
| 2026-05-08 22:31 | 24.97938 | -156.63500 | 32962 ft | 464 kts | 41° |
| 2026-05-08 22:31 | 25.02773 | -156.58741 | 32962 ft | 464 kts | 41° |
| 2026-05-08 22:32 | 25.07549 | -156.54024 | 32962 ft | 464 kts | 41° |
| 2026-05-08 22:32 | 25.12371 | -156.49255 | 32962 ft | 464 kts | 41° |
| 2026-05-08 22:33 | 25.17171 | -156.44507 | 32973 ft | 464 kts | 41° |
| 2026-05-08 22:33 | 25.19588 | -156.42113 | 33105 ft | 466 kts | 42° |
| 2026-05-08 22:33 | 25.21999 | -156.39723 | 33128 ft | 467 kts | 42° |
| 2026-05-08 22:34 | 25.26805 | -156.34951 | 33138 ft | 464 kts | 42° |
| 2026-05-08 22:34 | 25.31621 | -156.30158 | 33142 ft | 464 kts | 42° |
| 2026-05-08 22:35 | 25.36398 | -156.25396 | 33141 ft | 464 kts | 42° |
| 2026-05-08 22:35 | 25.41167 | -156.20636 | 33142 ft | 464 kts | 42° |
| 2026-05-08 22:36 | 25.45957 | -156.15857 | 33142 ft | 464 kts | 41° |
| 2026-05-08 22:36 | 25.50771 | -156.11083 | 33141 ft | 464 kts | 42° |
| 2026-05-08 22:37 | 25.55566 | -156.06305 | 33142 ft | 464 kts | 42° |
| 2026-05-08 22:37 | 25.60324 | -156.01553 | 33141 ft | 463 kts | 42° |
| 2026-05-08 22:38 | 25.65125 | -155.96750 | 33141 ft | 463 kts | 42° |
| 2026-05-08 22:38 | 25.69896 | -155.91969 | 33142 ft | 464 kts | 42° |
| 2026-05-08 22:39 | 25.74689 | -155.87161 | 33142 ft | 463 kts | 42° |
| 2026-05-08 22:39 | 25.79443 | -155.82385 | 33141 ft | 463 kts | 42° |
| 2026-05-08 22:40 | 25.84231 | -155.77571 | 33142 ft | 463 kts | 42° |
| 2026-05-08 22:40 | 25.89015 | -155.72755 | 33141 ft | 463 kts | 42° |
| 2026-05-08 22:41 | 25.93754 | -155.67979 | 33142 ft | 463 kts | 42° |
| 2026-05-08 22:41 | 25.98545 | -155.63145 | 33142 ft | 463 kts | 42° |
| 2026-05-08 22:42 | 26.03308 | -155.58333 | 33142 ft | 463 kts | 42° |
| 2026-05-08 22:42 | 26.08113 | -155.53473 | 33141 ft | 463 kts | 42° |
| 2026-05-08 22:43 | 26.12887 | -155.48639 | 33141 ft | 463 kts | 42° |
| 2026-05-08 22:43 | 26.17619 | -155.43843 | 33142 ft | 463 kts | 42° |
| 2026-05-08 22:44 | 26.22384 | -155.39007 | 33142 ft | 463 kts | 42° |
| 2026-05-08 22:44 | 26.27139 | -155.34176 | 33141 ft | 463 kts | 42° |
| 2026-05-08 22:45 | 26.31904 | -155.29328 | 33142 ft | 463 kts | 42° |
| 2026-05-08 22:45 | 26.36643 | -155.24502 | 33142 ft | 463 kts | 42° |
| 2026-05-08 22:46 | 26.41414 | -155.19638 | 33142 ft | 463 kts | 42° |
| 2026-05-08 22:46 | 26.46156 | -155.14797 | 33141 ft | 463 kts | 42° |
| 2026-05-08 22:47 | 26.50940 | -155.09909 | 33142 ft | 464 kts | 42° |
| 2026-05-08 22:47 | 26.55688 | -155.05050 | 33141 ft | 464 kts | 42° |
| 2026-05-08 22:48 | 26.60454 | -155.00168 | 33141 ft | 464 kts | 42° |
| 2026-05-08 22:48 | 26.65194 | -154.95307 | 33141 ft | 464 kts | 42° |
| 2026-05-08 22:49 | 26.69971 | -154.90402 | 33141 ft | 464 kts | 42° |
| 2026-05-08 22:49 | 26.77097 | -154.83074 | 33141 ft | 464 kts | 43° |
| 2026-05-08 22:50 | 26.81854 | -154.78175 | 33142 ft | 464 kts | 43° |
| 2026-05-08 22:50 | 26.86632 | -154.73249 | 33142 ft | 464 kts | 43° |
| 2026-05-08 22:51 | 26.91337 | -154.68391 | 33141 ft | 464 kts | 43° |
| 2026-05-08 22:51 | 26.96112 | -154.63456 | 33141 ft | 464 kts | 43° |
| 2026-05-08 22:52 | 27.00025 | -154.59407 | 33142 ft | 464 kts | 43° |
| 2026-05-08 22:52 | 27.05562 | -154.53671 | 33142 ft | 464 kts | 43° |
| 2026-05-08 22:53 | 27.09533 | -154.49553 | 33142 ft | 464 kts | 43° |
| 2026-05-08 22:53 | 27.14251 | -154.44654 | 33142 ft | 464 kts | 43° |
| 2026-05-08 22:54 | 27.18997 | -154.39720 | 33142 ft | 464 kts | 43° |
| 2026-05-08 22:54 | 27.23743 | -154.34779 | 33142 ft | 464 kts | 43° |
| 2026-05-08 22:55 | 27.28462 | -154.29862 | 33142 ft | 464 kts | 43° |
| 2026-05-08 22:55 | 27.33192 | -154.24927 | 33141 ft | 463 kts | 43° |
| 2026-05-08 22:56 | 27.37920 | -154.19987 | 33141 ft | 464 kts | 43° |
| 2026-05-08 22:56 | 27.42657 | -154.15032 | 33142 ft | 464 kts | 43° |
| 2026-05-08 22:57 | 27.47387 | -154.10079 | 33142 ft | 464 kts | 43° |
| 2026-05-08 22:57 | 27.52113 | -154.05124 | 33141 ft | 464 kts | 43° |
| 2026-05-08 22:58 | 27.56855 | -154.00145 | 33142 ft | 464 kts | 43° |
| 2026-05-08 22:58 | 27.61544 | -153.95217 | 33142 ft | 464 kts | 43° |
| 2026-05-08 22:59 | 27.66264 | -153.90250 | 33142 ft | 464 kts | 43° |
| 2026-05-08 22:59 | 27.70994 | -153.85266 | 33142 ft | 464 kts | 43° |
| 2026-05-08 23:00 | 27.75719 | -153.80280 | 33142 ft | 464 kts | 43° |
| 2026-05-08 23:00 | 27.80394 | -153.75342 | 33142 ft | 464 kts | 43° |
| 2026-05-08 23:01 | 27.85101 | -153.70364 | 33141 ft | 464 kts | 43° |
| 2026-05-08 23:01 | 27.89806 | -153.65381 | 33141 ft | 464 kts | 43° |
| 2026-05-08 23:02 | 27.94528 | -153.60375 | 33141 ft | 464 kts | 43° |
| 2026-05-08 23:02 | 27.99233 | -153.55380 | 33141 ft | 464 kts | 43° |
| 2026-05-08 23:03 | 28.03934 | -153.50382 | 33142 ft | 464 kts | 43° |
| 2026-05-08 23:03 | 28.08665 | -153.45347 | 33142 ft | 464 kts | 43° |
| 2026-05-08 23:04 | 28.13336 | -153.40369 | 33142 ft | 464 kts | 43° |
| 2026-05-08 23:04 | 28.18041 | -153.35350 | 33142 ft | 463 kts | 43° |
| 2026-05-08 23:05 | 28.22731 | -153.30339 | 33142 ft | 463 kts | 43° |
| 2026-05-08 23:05 | 28.27416 | -153.25327 | 33141 ft | 463 kts | 43° |
| 2026-05-08 23:06 | 28.32098 | -153.20313 | 33141 ft | 463 kts | 43° |
| 2026-05-08 23:06 | 28.36779 | -153.15293 | 33141 ft | 463 kts | 43° |
| 2026-05-08 23:07 | 28.41459 | -153.10267 | 33142 ft | 463 kts | 43° |
| 2026-05-08 23:07 | 28.46159 | -153.05214 | 33142 ft | 463 kts | 43° |
| 2026-05-08 23:08 | 28.50789 | -153.00229 | 33142 ft | 463 kts | 43° |
| 2026-05-08 23:08 | 28.55466 | -152.95188 | 33142 ft | 463 kts | 43° |
| 2026-05-08 23:09 | 28.60148 | -152.90135 | 33141 ft | 463 kts | 43° |
| 2026-05-08 23:09 | 28.64824 | -152.85081 | 33142 ft | 463 kts | 43° |
| 2026-05-08 23:10 | 28.69491 | -152.80031 | 33142 ft | 463 kts | 43° |
| 2026-05-08 23:10 | 28.74150 | -152.74982 | 33141 ft | 463 kts | 43° |
| 2026-05-08 23:11 | 28.78805 | -152.69932 | 33142 ft | 463 kts | 43° |
| 2026-05-08 23:11 | 28.83488 | -152.64845 | 33141 ft | 463 kts | 43° |
| 2026-05-08 23:12 | 28.88144 | -152.59781 | 33141 ft | 463 kts | 43° |
| 2026-05-08 23:12 | 28.92788 | -152.54723 | 33141 ft | 463 kts | 44° |
| 2026-05-08 23:13 | 28.97445 | -152.49644 | 33142 ft | 463 kts | 44° |
| 2026-05-08 23:13 | 29.02098 | -152.44562 | 33141 ft | 463 kts | 44° |
| 2026-05-08 23:14 | 29.06780 | -152.39443 | 33141 ft | 463 kts | 44° |
| 2026-05-08 23:14 | 29.11407 | -152.34377 | 33142 ft | 463 kts | 44° |
| 2026-05-08 23:15 | 29.16058 | -152.29278 | 33142 ft | 463 kts | 44° |
| 2026-05-08 23:15 | 29.20700 | -152.24182 | 33141 ft | 463 kts | 44° |
| 2026-05-08 23:16 | 29.25323 | -152.19100 | 33142 ft | 463 kts | 44° |
| 2026-05-08 23:16 | 29.29987 | -152.13966 | 33142 ft | 463 kts | 44° |
| 2026-05-08 23:17 | 29.34611 | -152.08871 | 33142 ft | 463 kts | 44° |
| 2026-05-08 23:17 | 29.39239 | -152.03762 | 33141 ft | 463 kts | 44° |
| 2026-05-08 23:18 | 29.43895 | -151.98618 | 33142 ft | 463 kts | 44° |
| 2026-05-08 23:18 | 29.48535 | -151.93483 | 33142 ft | 463 kts | 44° |
| 2026-05-08 23:19 | 29.53157 | -151.88361 | 33142 ft | 463 kts | 44° |
| 2026-05-08 23:19 | 29.57786 | -151.83225 | 33141 ft | 463 kts | 44° |
| 2026-05-08 23:20 | 29.62407 | -151.78091 | 33141 ft | 463 kts | 44° |
| 2026-05-08 23:20 | 29.67033 | -151.72944 | 33142 ft | 463 kts | 44° |
| 2026-05-08 23:21 | 29.71643 | -151.67808 | 33142 ft | 463 kts | 44° |
| 2026-05-08 23:21 | 29.76293 | -151.62621 | 33142 ft | 463 kts | 44° |
| 2026-05-08 23:22 | 29.80891 | -151.57485 | 33142 ft | 463 kts | 44° |
| 2026-05-08 23:22 | 29.85516 | -151.52311 | 33141 ft | 463 kts | 44° |
| 2026-05-08 23:23 | 29.90145 | -151.47126 | 33141 ft | 463 kts | 44° |
| 2026-05-08 23:23 | 29.94758 | -151.41952 | 33142 ft | 464 kts | 44° |
| 2026-05-08 23:24 | 29.99387 | -151.36763 | 33142 ft | 464 kts | 44° |
| 2026-05-08 23:24 | 30.04008 | -151.31586 | 33141 ft | 464 kts | 44° |
| 2026-05-08 23:25 | 30.08633 | -151.26370 | 33141 ft | 464 kts | 44° |
| 2026-05-08 23:25 | 30.13231 | -151.21172 | 33141 ft | 464 kts | 44° |
| 2026-05-08 23:26 | 30.17869 | -151.15924 | 33142 ft | 464 kts | 44° |
| 2026-05-08 23:26 | 30.22454 | -151.10733 | 33141 ft | 464 kts | 44° |
| 2026-05-08 23:27 | 30.27055 | -151.05508 | 33142 ft | 464 kts | 44° |
| 2026-05-08 23:27 | 30.31667 | -151.00253 | 33142 ft | 464 kts | 44° |
| 2026-05-08 23:28 | 30.36228 | -150.95044 | 33141 ft | 464 kts | 44° |
| 2026-05-08 23:28 | 30.40824 | -150.89787 | 33141 ft | 464 kts | 44° |
| 2026-05-08 23:29 | 30.45421 | -150.84521 | 33142 ft | 464 kts | 44° |
| 2026-05-08 23:29 | 30.49988 | -150.79335 | 33141 ft | 463 kts | 44° |
| 2026-05-08 23:30 | 30.54602 | -150.74077 | 33142 ft | 463 kts | 44° |
| 2026-05-08 23:30 | 30.59176 | -150.68845 | 33142 ft | 463 kts | 44° |
| 2026-05-08 23:31 | 30.63776 | -150.63568 | 33142 ft | 463 kts | 44° |
| 2026-05-08 23:31 | 30.68344 | -150.58320 | 33141 ft | 463 kts | 44° |
| 2026-05-08 23:32 | 30.72921 | -150.53053 | 33142 ft | 463 kts | 45° |
| 2026-05-08 23:32 | 30.77514 | -150.47758 | 33142 ft | 462 kts | 45° |
| 2026-05-08 23:33 | 30.82043 | -150.42531 | 33142 ft | 462 kts | 45° |
| 2026-05-08 23:33 | 30.86611 | -150.37250 | 33142 ft | 462 kts | 45° |
| 2026-05-08 23:34 | 30.91167 | -150.31976 | 33142 ft | 462 kts | 45° |
| 2026-05-08 23:34 | 30.95755 | -150.26658 | 33141 ft | 462 kts | 45° |
| 2026-05-08 23:35 | 31.00299 | -150.21383 | 33141 ft | 462 kts | 45° |
| 2026-05-08 23:35 | 31.04844 | -150.16098 | 33141 ft | 462 kts | 45° |
| 2026-05-08 23:36 | 31.09414 | -150.10777 | 33142 ft | 462 kts | 45° |
| 2026-05-08 23:36 | 31.13934 | -150.05508 | 33141 ft | 462 kts | 45° |
| 2026-05-08 23:37 | 31.18491 | -150.00186 | 33142 ft | 462 kts | 45° |
| 2026-05-08 23:37 | 31.23025 | -149.94885 | 33142 ft | 462 kts | 45° |
| 2026-05-08 23:38 | 31.26822 | -149.90440 | 33141 ft | 462 kts | 45° |
| 2026-05-08 23:38 | 31.32106 | -149.84244 | 33142 ft | 462 kts | 45° |
| 2026-05-08 23:39 | 31.35897 | -149.79793 | 33142 ft | 462 kts | 45° |
| 2026-05-08 23:39 | 31.40408 | -149.74489 | 33142 ft | 462 kts | 45° |
| 2026-05-08 23:40 | 31.44955 | -149.69135 | 33141 ft | 462 kts | 45° |
| 2026-05-08 23:40 | 31.49507 | -149.63768 | 33142 ft | 462 kts | 45° |
| 2026-05-08 23:41 | 31.54004 | -149.58456 | 33142 ft | 462 kts | 45° |
| 2026-05-08 23:41 | 31.58575 | -149.53051 | 33141 ft | 462 kts | 45° |
| 2026-05-08 23:42 | 31.63058 | -149.47740 | 33141 ft | 462 kts | 45° |
| 2026-05-08 23:42 | 31.67589 | -149.42367 | 33142 ft | 462 kts | 45° |
| 2026-05-08 23:43 | 31.72100 | -149.37008 | 33142 ft | 462 kts | 45° |
| 2026-05-08 23:43 | 31.76625 | -149.31625 | 33142 ft | 462 kts | 45° |
| 2026-05-08 23:44 | 31.81144 | -149.26242 | 33141 ft | 462 kts | 45° |
| 2026-05-08 23:44 | 31.85671 | -149.20840 | 33142 ft | 462 kts | 45° |
| 2026-05-08 23:45 | 31.90185 | -149.15446 | 33142 ft | 462 kts | 45° |
| 2026-05-08 23:45 | 31.94669 | -149.10080 | 33141 ft | 462 kts | 45° |
| 2026-05-08 23:46 | 31.99164 | -149.04693 | 33141 ft | 462 kts | 45° |
| 2026-05-08 23:46 | 32.03652 | -148.99306 | 33141 ft | 462 kts | 45° |
| 2026-05-08 23:47 | 32.08151 | -148.93897 | 33141 ft | 462 kts | 45° |
| 2026-05-08 23:47 | 32.12658 | -148.88472 | 33141 ft | 462 kts | 45° |
| 2026-05-08 23:48 | 32.17179 | -148.83022 | 33141 ft | 462 kts | 45° |
| 2026-05-08 23:48 | 32.21635 | -148.77641 | 33141 ft | 462 kts | 45° |
| 2026-05-08 23:49 | 32.26136 | -148.72198 | 33141 ft | 462 kts | 45° |
| 2026-05-08 23:49 | 32.30610 | -148.66780 | 33141 ft | 462 kts | 45° |
| 2026-05-08 23:50 | 32.35096 | -148.61338 | 33141 ft | 462 kts | 45° |
| 2026-05-08 23:50 | 32.39590 | -148.55879 | 33141 ft | 462 kts | 46° |
| 2026-05-08 23:51 | 32.44062 | -148.50438 | 33141 ft | 462 kts | 46° |
| 2026-05-08 23:51 | 32.48556 | -148.44963 | 33141 ft | 463 kts | 46° |
| 2026-05-08 23:52 | 32.53031 | -148.39502 | 33142 ft | 463 kts | 46° |
| 2026-05-08 23:52 | 32.57548 | -148.33981 | 33142 ft | 463 kts | 46° |
| 2026-05-08 23:53 | 32.61991 | -148.28542 | 33142 ft | 463 kts | 46° |
| 2026-05-08 23:53 | 32.66491 | -148.23026 | 33142 ft | 463 kts | 46° |
| 2026-05-08 23:54 | 32.70960 | -148.17539 | 33142 ft | 463 kts | 46° |
| 2026-05-08 23:55 | 32.77654 | -148.09303 | 33141 ft | 463 kts | 46° |
| 2026-05-08 23:55 | 32.82124 | -148.03795 | 33141 ft | 463 kts | 46° |
| 2026-05-08 23:56 | 32.86590 | -147.98282 | 33141 ft | 463 kts | 46° |
| 2026-05-08 23:56 | 32.91049 | -147.92769 | 33142 ft | 463 kts | 46° |
| 2026-05-08 23:57 | 32.95517 | -147.87235 | 33142 ft | 463 kts | 46° |
| 2026-05-08 23:57 | 32.99957 | -147.81729 | 33141 ft | 463 kts | 46° |
| 2026-05-08 23:58 | 33.04413 | -147.76194 | 33141 ft | 463 kts | 46° |
| 2026-05-08 23:58 | 33.08874 | -147.70644 | 33141 ft | 463 kts | 46° |
| 2026-05-08 23:59 | 33.13323 | -147.65101 | 33141 ft | 463 kts | 46° |
| 2026-05-08 23:59 | 33.17747 | -147.59579 | 33141 ft | 463 kts | 46° |
| 2026-05-09 00:00 | 33.22201 | -147.54012 | 33142 ft | 463 kts | 46° |
| 2026-05-09 00:00 | 33.26657 | -147.48433 | 33141 ft | 463 kts | 46° |
| 2026-05-09 00:01 | 33.31083 | -147.42883 | 33142 ft | 463 kts | 46° |
| 2026-05-09 00:01 | 33.35494 | -147.37344 | 33141 ft | 463 kts | 46° |
| 2026-05-09 00:02 | 33.39957 | -147.31730 | 33141 ft | 463 kts | 46° |
| 2026-05-09 00:02 | 33.44393 | -147.26141 | 33141 ft | 463 kts | 46° |
| 2026-05-09 00:03 | 33.48812 | -147.20565 | 33141 ft | 463 kts | 46° |
| 2026-05-09 00:03 | 33.53234 | -147.14977 | 33141 ft | 463 kts | 46° |
| 2026-05-09 00:04 | 33.57665 | -147.09367 | 33142 ft | 462 kts | 46° |
| 2026-05-09 00:04 | 33.62068 | -147.03786 | 33142 ft | 462 kts | 46° |
| 2026-05-09 00:05 | 33.66522 | -146.98129 | 33142 ft | 462 kts | 46° |
| 2026-05-09 00:05 | 33.70898 | -146.92563 | 33142 ft | 462 kts | 46° |
| 2026-05-09 00:06 | 33.75331 | -146.86915 | 33141 ft | 462 kts | 46° |
| 2026-05-09 00:06 | 33.79731 | -146.81300 | 33142 ft | 462 kts | 46° |
| 2026-05-09 00:07 | 33.84145 | -146.75659 | 33142 ft | 462 kts | 46° |
| 2026-05-09 00:07 | 33.88551 | -146.70021 | 33143 ft | 463 kts | 46° |
| 2026-05-09 00:08 | 33.92970 | -146.64351 | 33141 ft | 465 kts | 46° |
| 2026-05-09 00:08 | 33.97358 | -146.58716 | 33142 ft | 462 kts | 47° |
| 2026-05-09 00:09 | 34.01756 | -146.53059 | 33142 ft | 462 kts | 47° |
| 2026-05-09 00:09 | 34.06155 | -146.47391 | 33139 ft | 462 kts | 47° |
| 2026-05-09 00:10 | 34.10540 | -146.41738 | 33120 ft | 464 kts | 47° |
| 2026-05-09 00:10 | 34.14956 | -146.36025 | 33112 ft | 462 kts | 47° |
| 2026-05-09 00:11 | 34.19337 | -146.30350 | 33112 ft | 462 kts | 47° |
| 2026-05-09 00:11 | 34.23698 | -146.24694 | 33112 ft | 462 kts | 47° |
| 2026-05-09 00:12 | 34.28100 | -146.18976 | 33112 ft | 462 kts | 47° |
| 2026-05-09 00:12 | 34.32508 | -146.13243 | 33115 ft | 464 kts | 47° |
| 2026-05-09 00:13 | 34.36896 | -146.07522 | 33111 ft | 464 kts | 47° |
| 2026-05-09 00:13 | 34.41243 | -146.01841 | 33109 ft | 465 kts | 47° |
| 2026-05-09 00:14 | 34.45654 | -145.96074 | 33112 ft | 467 kts | 47° |
| 2026-05-09 00:14 | 34.50040 | -145.90331 | 33112 ft | 462 kts | 47° |
| 2026-05-09 00:15 | 34.54425 | -145.84578 | 33112 ft | 462 kts | 47° |
| 2026-05-09 00:15 | 34.58750 | -145.78894 | 33112 ft | 462 kts | 47° |
| 2026-05-09 00:16 | 34.63107 | -145.73158 | 33112 ft | 462 kts | 47° |
| 2026-05-09 00:16 | 34.67460 | -145.67418 | 33112 ft | 462 kts | 47° |
| 2026-05-09 00:17 | 34.71802 | -145.61682 | 33112 ft | 462 kts | 47° |
| 2026-05-09 00:17 | 34.76160 | -145.55917 | 33112 ft | 462 kts | 47° |
| 2026-05-09 00:18 | 34.80534 | -145.50153 | 33112 ft | 462 kts | 47° |
| 2026-05-09 00:18 | 34.84873 | -145.44402 | 33112 ft | 462 kts | 47° |
| 2026-05-09 00:19 | 34.89195 | -145.38642 | 33112 ft | 462 kts | 47° |
| 2026-05-09 00:19 | 34.93533 | -145.32847 | 33105 ft | 458 kts | 47° |
| 2026-05-09 00:20 | 34.97818 | -145.27121 | 33090 ft | 456 kts | 47° |
| 2026-05-09 00:20 | 35.02065 | -145.21438 | 33083 ft | 456 kts | 47° |
| 2026-05-09 00:21 | 35.06345 | -145.15697 | 33082 ft | 456 kts | 47° |
| 2026-05-09 00:21 | 35.10622 | -145.09941 | 33082 ft | 456 kts | 47° |
| 2026-05-09 00:22 | 35.14869 | -145.04213 | 33082 ft | 456 kts | 47° |
| 2026-05-09 00:22 | 35.19115 | -144.98473 | 33082 ft | 456 kts | 48° |
| 2026-05-09 00:23 | 35.23370 | -144.92717 | 33079 ft | 456 kts | 47° |
| 2026-05-09 00:23 | 35.27677 | -144.86959 | 33077 ft | 456 kts | 47° |
| 2026-05-09 00:24 | 35.31907 | -144.81265 | 33081 ft | 456 kts | 47° |
| 2026-05-09 00:24 | 35.36177 | -144.75493 | 33072 ft | 456 kts | 47° |
| 2026-05-09 00:25 | 35.40415 | -144.69747 | 33059 ft | 456 kts | 48° |
| 2026-05-09 00:25 | 35.44675 | -144.63958 | 33053 ft | 456 kts | 48° |
| 2026-05-09 00:26 | 35.48215 | -144.59139 | 33055 ft | 456 kts | 48° |
| 2026-05-09 00:26 | 35.52447 | -144.53369 | 33055 ft | 456 kts | 48° |
| 2026-05-09 00:27 | 35.56691 | -144.47571 | 33053 ft | 456 kts | 48° |
| 2026-05-09 00:27 | 35.60933 | -144.41767 | 33053 ft | 456 kts | 48° |
| 2026-05-09 00:28 | 35.65145 | -144.35995 | 33053 ft | 456 kts | 48° |
| 2026-05-09 00:28 | 35.69389 | -144.30167 | 33053 ft | 456 kts | 48° |
| 2026-05-09 00:29 | 35.73615 | -144.24354 | 33053 ft | 456 kts | 48° |
| 2026-05-09 00:29 | 35.77871 | -144.18491 | 33053 ft | 456 kts | 48° |
| 2026-05-09 00:30 | 35.82063 | -144.12704 | 33055 ft | 456 kts | 48° |
| 2026-05-09 00:30 | 35.86283 | -144.06870 | 33057 ft | 456 kts | 48° |
| 2026-05-09 00:31 | 35.90507 | -144.01021 | 33053 ft | 456 kts | 48° |
| 2026-05-09 00:31 | 35.94741 | -143.95146 | 33053 ft | 456 kts | 48° |
| 2026-05-09 00:32 | 35.98926 | -143.89330 | 33053 ft | 456 kts | 48° |
| 2026-05-09 00:32 | 36.03131 | -143.83475 | 33053 ft | 456 kts | 48° |
| 2026-05-09 00:33 | 36.07337 | -143.77610 | 33053 ft | 456 kts | 48° |
| 2026-05-09 00:33 | 36.11524 | -143.71760 | 33053 ft | 456 kts | 48° |
| 2026-05-09 00:34 | 36.15731 | -143.65873 | 33053 ft | 456 kts | 48° |
| 2026-05-09 00:34 | 36.19942 | -143.59970 | 33053 ft | 456 kts | 48° |
| 2026-05-09 00:35 | 36.24118 | -143.54104 | 33053 ft | 456 kts | 49° |
| 2026-05-09 00:35 | 36.28303 | -143.48216 | 33053 ft | 456 kts | 49° |
| 2026-05-09 00:36 | 36.32472 | -143.42340 | 33053 ft | 456 kts | 49° |
| 2026-05-09 00:36 | 36.36653 | -143.36437 | 33053 ft | 456 kts | 49° |
| 2026-05-09 00:37 | 36.40836 | -143.30520 | 33053 ft | 456 kts | 49° |
| 2026-05-09 00:37 | 36.45014 | -143.24601 | 33053 ft | 456 kts | 49° |
| 2026-05-09 00:38 | 36.49194 | -143.18668 | 33053 ft | 456 kts | 49° |
| 2026-05-09 00:38 | 36.53370 | -143.12730 | 33053 ft | 456 kts | 49° |
| 2026-05-09 00:39 | 36.57528 | -143.06807 | 33053 ft | 456 kts | 49° |
| 2026-05-09 00:39 | 36.61700 | -143.00853 | 33053 ft | 456 kts | 49° |
| 2026-05-09 00:40 | 36.65871 | -142.94891 | 33042 ft | 457 kts | 49° |
| 2026-05-09 00:40 | 36.70028 | -142.88937 | 33026 ft | 457 kts | 49° |
| 2026-05-09 00:41 | 36.76279 | -142.79965 | 33019 ft | 457 kts | 49° |
| 2026-05-09 00:41 | 36.80466 | -142.73940 | 33018 ft | 457 kts | 49° |
| 2026-05-09 00:42 | 36.84587 | -142.68001 | 33003 ft | 457 kts | 49° |
| 2026-05-09 00:42 | 36.88750 | -142.61991 | 32992 ft | 457 kts | 49° |
| 2026-05-09 00:43 | 36.92881 | -142.56014 | 32989 ft | 457 kts | 49° |
| 2026-05-09 00:43 | 36.97033 | -142.49998 | 32988 ft | 457 kts | 49° |
| 2026-05-09 00:44 | 37.01172 | -142.43990 | 32976 ft | 457 kts | 49° |
| 2026-05-09 00:44 | 37.05328 | -142.37946 | 32966 ft | 457 kts | 49° |
| 2026-05-09 00:45 | 37.09468 | -142.31913 | 32964 ft | 457 kts | 49° |
| 2026-05-09 00:45 | 37.13610 | -142.25867 | 32964 ft | 457 kts | 49° |
| 2026-05-09 00:46 | 37.17755 | -142.19805 | 32964 ft | 457 kts | 49° |
| 2026-05-09 00:46 | 37.21870 | -142.13776 | 32970 ft | 457 kts | 49° |
| 2026-05-09 00:47 | 37.26002 | -142.07712 | 32978 ft | 457 kts | 49° |
| 2026-05-09 00:47 | 37.30125 | -142.01648 | 32988 ft | 457 kts | 49° |
| 2026-05-09 00:48 | 37.34227 | -141.95605 | 32994 ft | 456 kts | 49° |
| 2026-05-09 00:48 | 37.38362 | -141.89502 | 32994 ft | 456 kts | 49° |
| 2026-05-09 00:49 | 37.42468 | -141.83431 | 32994 ft | 456 kts | 49° |
| 2026-05-09 00:49 | 37.46598 | -141.77313 | 32994 ft | 456 kts | 50° |
| 2026-05-09 00:50 | 37.50689 | -141.71240 | 32994 ft | 458 kts | 50° |
| 2026-05-09 00:50 | 37.54800 | -141.65127 | 32989 ft | 459 kts | 50° |
| 2026-05-09 00:51 | 37.58918 | -141.58993 | 32981 ft | 458 kts | 50° |
| 2026-05-09 00:51 | 37.63028 | -141.52858 | 32971 ft | 458 kts | 50° |
| 2026-05-09 00:52 | 37.67172 | -141.46662 | 32964 ft | 458 kts | 50° |
| 2026-05-09 00:52 | 37.71249 | -141.40553 | 32966 ft | 458 kts | 50° |
| 2026-05-09 00:53 | 37.75371 | -141.34366 | 32973 ft | 458 kts | 50° |
| 2026-05-09 00:53 | 37.79452 | -141.28228 | 32986 ft | 458 kts | 50° |
| 2026-05-09 00:54 | 37.83566 | -141.22031 | 32989 ft | 458 kts | 50° |
| 2026-05-09 00:54 | 37.87646 | -141.15871 | 32990 ft | 458 kts | 50° |
| 2026-05-09 00:55 | 37.91739 | -141.09681 | 32994 ft | 458 kts | 50° |
| 2026-05-09 00:55 | 37.95831 | -141.03480 | 32994 ft | 458 kts | 50° |
| 2026-05-09 00:56 | 37.99937 | -140.97247 | 32994 ft | 458 kts | 50° |
| 2026-05-09 00:56 | 38.03987 | -140.91085 | 32994 ft | 458 kts | 50° |
| 2026-05-09 00:57 | 38.08059 | -140.84880 | 32995 ft | 458 kts | 50° |
| 2026-05-09 00:57 | 38.12162 | -140.78615 | 32998 ft | 458 kts | 50° |
| 2026-05-09 00:58 | 38.16238 | -140.72379 | 33005 ft | 458 kts | 50° |
| 2026-05-09 00:58 | 38.20276 | -140.66188 | 33022 ft | 457 kts | 50° |
| 2026-05-09 00:59 | 38.24276 | -140.60046 | 33033 ft | 447 kts | 50° |
| 2026-05-09 00:59 | 38.28230 | -140.53962 | 33050 ft | 447 kts | 50° |
| 2026-05-09 01:00 | 38.32210 | -140.47826 | 33057 ft | 447 kts | 50° |
| 2026-05-09 01:00 | 38.36159 | -140.41726 | 33058 ft | 447 kts | 50° |
| 2026-05-09 01:01 | 38.40115 | -140.35605 | 33065 ft | 447 kts | 50° |
| 2026-05-09 01:01 | 38.44065 | -140.29480 | 33080 ft | 447 kts | 50° |
| 2026-05-09 01:02 | 38.47999 | -140.23370 | 33087 ft | 447 kts | 50° |
| 2026-05-09 01:02 | 38.51938 | -140.17239 | 33087 ft | 447 kts | 50° |
| 2026-05-09 01:03 | 38.55894 | -140.11071 | 33097 ft | 447 kts | 50° |
| 2026-05-09 01:03 | 38.59810 | -140.04953 | 33108 ft | 447 kts | 51° |
| 2026-05-09 01:04 | 38.63740 | -139.98801 | 33116 ft | 447 kts | 51° |
| 2026-05-09 01:04 | 38.67666 | -139.92645 | 33120 ft | 447 kts | 51° |
| 2026-05-09 01:05 | 38.71589 | -139.86480 | 33130 ft | 447 kts | 51° |
| 2026-05-09 01:06 | 38.77471 | -139.77215 | 33140 ft | 447 kts | 51° |
| 2026-05-09 01:06 | 38.81385 | -139.71035 | 33149 ft | 447 kts | 51° |
| 2026-05-09 01:07 | 38.85311 | -139.64826 | 33162 ft | 447 kts | 51° |
| 2026-05-09 01:07 | 38.89199 | -139.58662 | 33166 ft | 447 kts | 51° |
| 2026-05-09 01:08 | 38.93120 | -139.52436 | 33172 ft | 447 kts | 51° |
| 2026-05-09 01:08 | 38.97047 | -139.46187 | 33184 ft | 449 kts | 51° |
| 2026-05-09 01:09 | 39.00936 | -139.39987 | 33172 ft | 448 kts | 51° |
| 2026-05-09 01:09 | 39.04873 | -139.33698 | 33171 ft | 448 kts | 51° |
| 2026-05-09 01:10 | 39.08772 | -139.27457 | 33167 ft | 448 kts | 51° |
| 2026-05-09 01:10 | 39.12655 | -139.21230 | 33161 ft | 449 kts | 51° |
| 2026-05-09 01:11 | 39.16598 | -139.14895 | 33144 ft | 448 kts | 51° |
| 2026-05-09 01:11 | 39.20462 | -139.08673 | 33138 ft | 448 kts | 51° |
| 2026-05-09 01:12 | 39.24377 | -139.02357 | 33141 ft | 448 kts | 51° |
| 2026-05-09 01:12 | 39.27597 | -138.97154 | 33138 ft | 448 kts | 51° |
| 2026-05-09 01:13 | 39.32140 | -138.89798 | 33120 ft | 448 kts | 51° |
| 2026-05-09 01:13 | 39.36022 | -138.83497 | 33119 ft | 448 kts | 51° |
| 2026-05-09 01:14 | 39.39255 | -138.78241 | 33130 ft | 448 kts | 51° |
| 2026-05-09 01:14 | 39.43150 | -138.71898 | 33130 ft | 448 kts | 51° |
| 2026-05-09 01:15 | 39.47005 | -138.65607 | 33119 ft | 448 kts | 51° |
| 2026-05-09 01:15 | 39.50883 | -138.59264 | 33118 ft | 448 kts | 51° |
| 2026-05-09 01:16 | 39.54758 | -138.52915 | 33121 ft | 448 kts | 51° |
| 2026-05-09 01:16 | 39.58624 | -138.46567 | 33120 ft | 448 kts | 51° |
| 2026-05-09 01:17 | 39.64439 | -138.37062 | 33119 ft | 448 kts | 52° |
| 2026-05-09 01:17 | 39.68301 | -138.30672 | 33118 ft | 448 kts | 52° |
| 2026-05-09 01:18 | 39.72128 | -138.24322 | 33109 ft | 449 kts | 52° |
| 2026-05-09 01:18 | 39.75997 | -138.17893 | 33098 ft | 453 kts | 52° |
| 2026-05-09 01:19 | 39.79866 | -138.11459 | 33085 ft | 452 kts | 52° |
| 2026-05-09 01:19 | 39.83736 | -138.05004 | 33078 ft | 452 kts | 52° |
| 2026-05-09 01:20 | 39.87588 | -137.98546 | 33078 ft | 452 kts | 52° |
| 2026-05-09 01:20 | 39.91435 | -137.92078 | 33072 ft | 452 kts | 52° |
| 2026-05-09 01:21 | 39.95293 | -137.85574 | 33058 ft | 452 kts | 52° |
| 2026-05-09 01:21 | 39.99136 | -137.79081 | 33053 ft | 452 kts | 52° |
| 2026-05-09 01:22 | 40.03003 | -137.72621 | 33053 ft | 452 kts | 52° |
| 2026-05-09 01:22 | 40.06877 | -137.66145 | 33053 ft | 452 kts | 52° |
| 2026-05-09 01:23 | 40.10725 | -137.59668 | 33053 ft | 452 kts | 52° |
| 2026-05-09 01:23 | 40.14574 | -137.53160 | 33053 ft | 452 kts | 52° |
| 2026-05-09 01:24 | 40.18417 | -137.46644 | 33053 ft | 452 kts | 52° |
| 2026-05-09 01:24 | 40.22264 | -137.40103 | 33053 ft | 452 kts | 52° |
| 2026-05-09 01:25 | 40.26081 | -137.33600 | 33053 ft | 452 kts | 52° |
| 2026-05-09 01:25 | 40.29899 | -137.27081 | 33053 ft | 452 kts | 52° |
| 2026-05-09 01:26 | 40.33721 | -137.20541 | 33053 ft | 452 kts | 52° |
| 2026-05-09 01:26 | 40.37558 | -137.13960 | 33053 ft | 452 kts | 52° |
| 2026-05-09 01:27 | 40.41365 | -137.07419 | 33053 ft | 452 kts | 52° |
| 2026-05-09 01:27 | 40.45181 | -137.00848 | 33053 ft | 452 kts | 52° |
| 2026-05-09 01:28 | 40.49014 | -136.94233 | 33052 ft | 453 kts | 52° |
| 2026-05-09 01:28 | 40.52805 | -136.87677 | 33048 ft | 453 kts | 52° |
| 2026-05-09 01:29 | 40.56614 | -136.81076 | 33053 ft | 453 kts | 53° |
| 2026-05-09 01:29 | 40.60426 | -136.74454 | 33053 ft | 453 kts | 53° |
| 2026-05-09 01:30 | 40.64210 | -136.67868 | 33048 ft | 453 kts | 53° |
| 2026-05-09 01:30 | 40.68024 | -136.61216 | 33052 ft | 453 kts | 53° |
| 2026-05-09 01:31 | 40.71816 | -136.54589 | 33053 ft | 453 kts | 53° |
| 2026-05-09 01:31 | 40.75619 | -136.47927 | 33053 ft | 453 kts | 53° |
| 2026-05-09 01:32 | 40.79365 | -136.41351 | 33053 ft | 453 kts | 53° |
| 2026-05-09 01:32 | 40.83179 | -136.34642 | 33053 ft | 453 kts | 53° |
| 2026-05-09 01:33 | 40.86932 | -136.28024 | 33053 ft | 453 kts | 53° |
| 2026-05-09 01:33 | 40.90712 | -136.21347 | 33060 ft | 453 kts | 53° |
| 2026-05-09 01:34 | 40.94480 | -136.14674 | 33068 ft | 453 kts | 53° |
| 2026-05-09 01:34 | 40.98244 | -136.07995 | 33076 ft | 453 kts | 53° |
| 2026-05-09 01:35 | 41.02001 | -136.01314 | 33075 ft | 453 kts | 53° |
| 2026-05-09 01:35 | 41.05752 | -135.94630 | 33076 ft | 453 kts | 53° |
| 2026-05-09 01:36 | 41.09532 | -135.87877 | 33082 ft | 453 kts | 53° |
| 2026-05-09 01:36 | 41.13255 | -135.81214 | 33082 ft | 453 kts | 53° |
| 2026-05-09 01:37 | 41.17008 | -135.74481 | 33074 ft | 453 kts | 53° |
| 2026-05-09 01:37 | 41.20757 | -135.67742 | 33078 ft | 451 kts | 53° |
| 2026-05-09 01:38 | 41.24460 | -135.61071 | 33085 ft | 446 kts | 53° |
| 2026-05-09 01:38 | 41.28058 | -135.54575 | 33092 ft | 446 kts | 53° |
| 2026-05-09 01:39 | 41.31703 | -135.47980 | 33103 ft | 446 kts | 53° |
| 2026-05-09 01:39 | 41.35380 | -135.41311 | 33112 ft | 446 kts | 53° |
| 2026-05-09 01:40 | 41.39039 | -135.34662 | 33112 ft | 446 kts | 53° |
| 2026-05-09 01:40 | 41.42695 | -135.28003 | 33121 ft | 446 kts | 53° |
| 2026-05-09 01:41 | 41.46352 | -135.21328 | 33132 ft | 446 kts | 54° |
| 2026-05-09 01:41 | 41.50000 | -135.14656 | 33141 ft | 446 kts | 54° |
| 2026-05-09 01:42 | 41.53641 | -135.07981 | 33144 ft | 446 kts | 54° |
| 2026-05-09 01:42 | 41.57295 | -135.01268 | 33147 ft | 446 kts | 54° |
| 2026-05-09 01:43 | 41.60948 | -134.94541 | 33165 ft | 446 kts | 54° |
| 2026-05-09 01:43 | 41.64562 | -134.87873 | 33175 ft | 446 kts | 54° |
| 2026-05-09 01:44 | 41.68207 | -134.81133 | 33176 ft | 446 kts | 54° |
| 2026-05-09 01:44 | 41.71815 | -134.74445 | 33180 ft | 445 kts | 54° |
| 2026-05-09 01:45 | 41.75438 | -134.67715 | 33193 ft | 445 kts | 54° |
| 2026-05-09 01:45 | 41.79057 | -134.60978 | 33203 ft | 445 kts | 54° |
| 2026-05-09 01:46 | 41.82668 | -134.54240 | 33209 ft | 445 kts | 54° |
| 2026-05-09 01:46 | 41.86288 | -134.47470 | 33219 ft | 445 kts | 54° |
| 2026-05-09 01:47 | 41.89901 | -134.40701 | 33225 ft | 445 kts | 54° |
| 2026-05-09 01:47 | 41.93510 | -134.33921 | 33240 ft | 447 kts | 54° |
| 2026-05-09 01:48 | 41.97105 | -134.27152 | 33239 ft | 447 kts | 54° |
| 2026-05-09 01:48 | 42.00716 | -134.20339 | 33231 ft | 447 kts | 54° |
| 2026-05-09 01:49 | 42.04332 | -134.13503 | 33227 ft | 447 kts | 54° |
| 2026-05-09 01:49 | 42.07921 | -134.06700 | 33225 ft | 447 kts | 54° |
| 2026-05-09 01:50 | 42.11529 | -133.99847 | 33214 ft | 447 kts | 54° |
| 2026-05-09 01:50 | 42.15124 | -133.93003 | 33204 ft | 447 kts | 54° |
| 2026-05-09 01:51 | 42.18709 | -133.86162 | 33201 ft | 447 kts | 54° |
| 2026-05-09 01:51 | 42.22288 | -133.79317 | 33192 ft | 447 kts | 54° |
| 2026-05-09 01:52 | 42.25872 | -133.72446 | 33184 ft | 447 kts | 54° |
| 2026-05-09 01:52 | 42.29449 | -133.65575 | 33178 ft | 447 kts | 54° |
| 2026-05-09 01:53 | 42.33007 | -133.58723 | 33182 ft | 447 kts | 55° |
| 2026-05-09 01:53 | 42.36581 | -133.51826 | 33198 ft | 447 kts | 55° |
| 2026-05-09 01:54 | 42.40147 | -133.44927 | 33181 ft | 447 kts | 55° |
| 2026-05-09 01:54 | 42.43706 | -133.38025 | 33169 ft | 447 kts | 55° |
| 2026-05-09 01:55 | 42.47284 | -133.31072 | 33176 ft | 447 kts | 55° |
| 2026-05-09 01:55 | 42.50815 | -133.24195 | 33180 ft | 447 kts | 55° |
| 2026-05-09 01:56 | 42.54353 | -133.17288 | 33167 ft | 447 kts | 55° |
| 2026-05-09 01:56 | 42.57895 | -133.10355 | 33154 ft | 447 kts | 55° |
| 2026-05-09 01:57 | 42.61449 | -133.03385 | 33165 ft | 448 kts | 55° |
| 2026-05-09 01:57 | 42.64990 | -132.96423 | 33164 ft | 452 kts | 55° |
| 2026-05-09 01:58 | 42.67961 | -132.90568 | 33157 ft | 451 kts | 55° |
| 2026-05-09 01:58 | 42.72129 | -132.82338 | 33143 ft | 451 kts | 55° |
| 2026-05-09 01:59 | 42.75677 | -132.75312 | 33140 ft | 451 kts | 55° |
| 2026-05-09 01:59 | 42.79217 | -132.68288 | 33137 ft | 451 kts | 55° |
| 2026-05-09 02:00 | 42.82755 | -132.61250 | 33123 ft | 451 kts | 55° |
| 2026-05-09 02:00 | 42.85733 | -132.55312 | 33114 ft | 451 kts | 56° |
| 2026-05-09 02:01 | 42.89254 | -132.48278 | 33112 ft | 451 kts | 56° |
| 2026-05-09 02:01 | 42.92780 | -132.41215 | 33108 ft | 451 kts | 56° |
| 2026-05-09 02:02 | 42.96327 | -132.34096 | 33112 ft | 451 kts | 56° |
| 2026-05-09 02:02 | 42.99832 | -132.27043 | 33108 ft | 451 kts | 56° |
| 2026-05-09 02:03 | 43.03346 | -132.19954 | 33105 ft | 451 kts | 56° |
| 2026-05-09 02:03 | 43.06877 | -132.12814 | 33111 ft | 451 kts | 56° |
| 2026-05-09 02:04 | 43.10364 | -132.05747 | 33106 ft | 451 kts | 56° |
| 2026-05-09 02:04 | 43.13904 | -131.98555 | 33103 ft | 451 kts | 56° |
| 2026-05-09 02:05 | 43.17381 | -131.91474 | 33109 ft | 451 kts | 56° |
| 2026-05-09 02:05 | 43.20863 | -131.84364 | 33116 ft | 451 kts | 56° |
| 2026-05-09 02:06 | 43.24359 | -131.77211 | 33118 ft | 451 kts | 56° |
| 2026-05-09 02:07 | 43.29595 | -131.66464 | 33123 ft | 450 kts | 56° |
| 2026-05-09 02:07 | 43.33037 | -131.59376 | 33136 ft | 445 kts | 56° |
| 2026-05-09 02:08 | 43.36460 | -131.52312 | 33149 ft | 445 kts | 56° |
| 2026-05-09 02:08 | 43.39882 | -131.45234 | 33163 ft | 445 kts | 56° |
| 2026-05-09 02:09 | 43.43311 | -131.38124 | 33171 ft | 445 kts | 56° |
| 2026-05-09 02:09 | 43.46712 | -131.31052 | 33175 ft | 445 kts | 56° |
| 2026-05-09 02:10 | 43.50126 | -131.23940 | 33178 ft | 445 kts | 56° |
| 2026-05-09 02:10 | 43.53533 | -131.16821 | 33195 ft | 445 kts | 56° |
| 2026-05-09 02:11 | 43.56931 | -131.09708 | 33204 ft | 445 kts | 56° |
| 2026-05-09 02:11 | 43.60322 | -131.02589 | 33206 ft | 445 kts | 57° |
| 2026-05-09 02:12 | 43.63722 | -130.95434 | 33216 ft | 445 kts | 57° |
| 2026-05-09 02:12 | 43.67109 | -130.88291 | 33224 ft | 445 kts | 57° |
| 2026-05-09 02:13 | 43.70488 | -130.81146 | 33234 ft | 445 kts | 57° |
| 2026-05-09 02:13 | 43.73866 | -130.73987 | 33248 ft | 445 kts | 57° |
| 2026-05-09 02:14 | 43.77226 | -130.66847 | 33257 ft | 445 kts | 57° |
| 2026-05-09 02:14 | 43.80597 | -130.59667 | 33255 ft | 445 kts | 57° |
| 2026-05-09 02:15 | 43.83965 | -130.52475 | 33257 ft | 444 kts | 57° |
| 2026-05-09 02:15 | 43.87318 | -130.45298 | 33260 ft | 444 kts | 57° |
| 2026-05-09 02:16 | 43.90682 | -130.38079 | 33260 ft | 444 kts | 57° |
| 2026-05-09 02:16 | 43.94070 | -130.30872 | 33260 ft | 444 kts | 57° |
| 2026-05-09 02:17 | 43.97428 | -130.23644 | 33260 ft | 447 kts | 57° |
| 2026-05-09 02:17 | 44.00746 | -130.16442 | 33256 ft | 446 kts | 57° |
| 2026-05-09 02:18 | 44.04106 | -130.09125 | 33252 ft | 446 kts | 57° |
| 2026-05-09 02:18 | 44.07452 | -130.01833 | 33238 ft | 446 kts | 57° |
| 2026-05-09 02:19 | 44.10740 | -129.94583 | 33231 ft | 446 kts | 57° |
| 2026-05-09 02:19 | 44.14086 | -129.87280 | 33230 ft | 446 kts | 57° |
| 2026-05-09 02:20 | 44.17413 | -129.79974 | 33230 ft | 446 kts | 57° |
| 2026-05-09 02:20 | 44.20720 | -129.72673 | 33230 ft | 446 kts | 58° |
| 2026-05-09 02:21 | 44.24016 | -129.65369 | 33230 ft | 446 kts | 58° |
| 2026-05-09 02:21 | 44.27312 | -129.58045 | 33230 ft | 446 kts | 58° |
| 2026-05-09 02:22 | 44.30689 | -129.50681 | 33230 ft | 446 kts | 57° |
| 2026-05-09 02:22 | 44.33993 | -129.43421 | 33230 ft | 446 kts | 57° |
| 2026-05-09 02:23 | 44.37314 | -129.36063 | 33230 ft | 446 kts | 58° |
| 2026-05-09 02:23 | 44.40621 | -129.28703 | 33230 ft | 446 kts | 58° |
| 2026-05-09 02:24 | 44.43914 | -129.21348 | 33230 ft | 446 kts | 58° |
| 2026-05-09 02:24 | 44.47200 | -129.13986 | 33230 ft | 446 kts | 58° |
| 2026-05-09 02:25 | 44.50469 | -129.06641 | 33230 ft | 446 kts | 58° |
| 2026-05-09 02:25 | 44.53749 | -128.99252 | 33230 ft | 446 kts | 58° |
| 2026-05-09 02:26 | 44.57024 | -128.91857 | 33230 ft | 446 kts | 58° |
| 2026-05-09 02:26 | 44.60300 | -128.84440 | 33230 ft | 447 kts | 58° |
| 2026-05-09 02:27 | 44.63569 | -128.77018 | 33230 ft | 447 kts | 58° |
| 2026-05-09 02:27 | 44.66843 | -128.69566 | 33236 ft | 447 kts | 58° |
| 2026-05-09 02:28 | 44.70096 | -128.62142 | 33232 ft | 447 kts | 58° |
| 2026-05-09 02:28 | 44.73360 | -128.54675 | 33230 ft | 447 kts | 58° |
| 2026-05-09 02:29 | 44.76609 | -128.47221 | 33230 ft | 447 kts | 58° |
| 2026-05-09 02:29 | 44.79839 | -128.39793 | 33230 ft | 447 kts | 58° |
| 2026-05-09 02:30 | 44.83089 | -128.32299 | 33230 ft | 447 kts | 58° |
| 2026-05-09 02:30 | 44.86325 | -128.24817 | 33234 ft | 447 kts | 58° |
| 2026-05-09 02:31 | 44.89566 | -128.17303 | 33232 ft | 447 kts | 58° |
| 2026-05-09 02:31 | 44.92790 | -128.09809 | 33234 ft | 447 kts | 58° |
| 2026-05-09 02:32 | 44.96010 | -128.02304 | 33241 ft | 447 kts | 59° |
| 2026-05-09 02:32 | 44.99219 | -127.94806 | 33249 ft | 447 kts | 59° |
| 2026-05-09 02:33 | 45.02421 | -127.87304 | 33258 ft | 447 kts | 59° |
| 2026-05-09 02:33 | 45.05643 | -127.79736 | 33263 ft | 447 kts | 59° |
| 2026-05-09 02:34 | 45.08833 | -127.72221 | 33267 ft | 447 kts | 59° |
| 2026-05-09 02:34 | 45.12037 | -127.64655 | 33280 ft | 447 kts | 59° |
| 2026-05-09 02:35 | 45.15220 | -127.57117 | 33288 ft | 447 kts | 59° |
| 2026-05-09 02:35 | 45.18430 | -127.49494 | 33289 ft | 447 kts | 59° |
| 2026-05-09 02:36 | 45.21580 | -127.41995 | 33303 ft | 448 kts | 59° |
| 2026-05-09 02:36 | 45.24778 | -127.34361 | 33314 ft | 448 kts | 59° |
| 2026-05-09 02:37 | 45.27953 | -127.26760 | 33308 ft | 448 kts | 59° |
| 2026-05-09 02:37 | 45.31114 | -127.19174 | 33292 ft | 448 kts | 59° |
| 2026-05-09 02:38 | 45.34289 | -127.11536 | 33284 ft | 448 kts | 59° |
| 2026-05-09 02:38 | 45.37474 | -127.03960 | 33285 ft | 448 kts | 59° |
| 2026-05-09 02:39 | 45.40625 | -126.96323 | 33273 ft | 448 kts | 59° |
| 2026-05-09 02:39 | 45.43766 | -126.88662 | 33265 ft | 448 kts | 59° |
| 2026-05-09 02:40 | 45.46905 | -126.80987 | 33260 ft | 448 kts | 59° |
| 2026-05-09 02:40 | 45.50041 | -126.73362 | 33259 ft | 448 kts | 58° |
| 2026-05-09 02:41 | 45.53771 | -126.66164 | 33260 ft | 448 kts | 51° |
| 2026-05-09 02:41 | 45.57645 | -126.59290 | 33260 ft | 448 kts | 51° |
| 2026-05-09 02:42 | 45.61535 | -126.52339 | 33260 ft | 448 kts | 51° |
| 2026-05-09 02:42 | 45.65423 | -126.45357 | 33259 ft | 448 kts | 51° |
| 2026-05-09 02:43 | 45.69298 | -126.38375 | 33260 ft | 448 kts | 51° |
| 2026-05-09 02:43 | 45.73156 | -126.31446 | 33260 ft | 448 kts | 51° |
| 2026-05-09 02:44 | 45.77055 | -126.24521 | 33260 ft | 448 kts | 51° |
| 2026-05-09 02:44 | 45.80945 | -126.17533 | 33263 ft | 448 kts | 51° |
| 2026-05-09 02:45 | 45.84798 | -126.10575 | 33269 ft | 448 kts | 51° |
| 2026-05-09 02:45 | 45.88682 | -126.03532 | 33278 ft | 447 kts | 51° |
| 2026-05-09 02:46 | 45.92494 | -125.96599 | 33264 ft | 446 kts | 51° |
| 2026-05-09 02:46 | 45.96344 | -125.89579 | 33260 ft | 446 kts | 52° |
| 2026-05-09 02:47 | 45.99533 | -125.83750 | 33262 ft | 445 kts | 52° |
| 2026-05-09 02:47 | 46.03394 | -125.76678 | 33263 ft | 445 kts | 52° |
| 2026-05-09 02:48 | 46.07220 | -125.69649 | 33260 ft | 445 kts | 52° |
| 2026-05-09 02:48 | 46.11017 | -125.62658 | 33259 ft | 445 kts | 52° |
| 2026-05-09 02:49 | 46.14833 | -125.55615 | 33260 ft | 445 kts | 52° |
| 2026-05-09 02:49 | 46.18650 | -125.48549 | 33260 ft | 445 kts | 52° |
| 2026-05-09 02:50 | 46.22460 | -125.41531 | 33260 ft | 445 kts | 51° |
| 2026-05-09 02:50 | 46.26284 | -125.34459 | 33259 ft | 445 kts | 52° |
| 2026-05-09 02:51 | 46.30041 | -125.27429 | 33260 ft | 445 kts | 52° |
| 2026-05-09 02:51 | 46.33832 | -125.20310 | 33260 ft | 445 kts | 52° |
| 2026-05-09 02:52 | 46.37593 | -125.13237 | 33260 ft | 445 kts | 52° |
| 2026-05-09 02:52 | 46.40739 | -125.05500 | 33260 ft | 445 kts | 67° |
| 2026-05-09 02:53 | 46.42684 | -124.97011 | 33260 ft | 445 kts | 75° |
| 2026-05-09 02:53 | 46.44234 | -124.88344 | 33260 ft | 444 kts | 75° |
| 2026-05-09 02:54 | 46.45766 | -124.79724 | 33260 ft | 444 kts | 75° |
| 2026-05-09 02:54 | 46.47257 | -124.71337 | 33260 ft | 444 kts | 75° |
| 2026-05-09 02:55 | 46.48797 | -124.62656 | 33260 ft | 444 kts | 75° |
| 2026-05-09 02:55 | 46.50362 | -124.54056 | 33260 ft | 444 kts | 75° |
| 2026-05-09 02:56 | 46.51941 | -124.45393 | 33260 ft | 444 kts | 75° |
| 2026-05-09 02:56 | 46.53489 | -124.36722 | 33259 ft | 444 kts | 75° |
| 2026-05-09 02:57 | 46.55017 | -124.28073 | 33260 ft | 444 kts | 75° |
| 2026-05-09 02:57 | 46.56542 | -124.19378 | 33260 ft | 444 kts | 76° |
| 2026-05-09 02:58 | 46.58103 | -124.10700 | 33260 ft | 444 kts | 75° |
| 2026-05-09 02:58 | 46.59614 | -124.02004 | 33263 ft | 444 kts | 76° |
| 2026-05-09 02:59 | 46.61100 | -123.93313 | 33260 ft | 444 kts | 76° |
| 2026-05-09 02:59 | 46.62580 | -123.84613 | 33261 ft | 444 kts | 76° |
| 2026-05-09 03:00 | 46.64064 | -123.75881 | 33263 ft | 443 kts | 76° |
| 2026-05-09 03:00 | 46.65458 | -123.67256 | 33257 ft | 428 kts | 78° |
| 2026-05-09 03:00 | 46.66040 | -123.63050 | 33254 ft | 411 kts | 78° |
| 2026-05-09 03:01 | 46.66595 | -123.59032 | 33249 ft | 394 kts | 78° |
| 2026-05-09 03:01 | 46.67123 | -123.55236 | 33245 ft | 379 kts | 78° |
| 2026-05-09 03:01 | 46.67467 | -123.52775 | 33243 ft | 370 kts | 78° |
| 2026-05-09 03:11 | 46.67758 | -123.50689 | 33238 ft | 362 kts | 78° |
| 2026-05-09 03:11 | 46.68261 | -123.47097 | 33234 ft | 348 kts | 78° |
| 2026-05-09 03:11 | 46.68731 | -123.43736 | 33234 ft | 336 kts | 78° |
| 2026-05-09 03:12 | 46.69658 | -123.37103 | 33252 ft | 336 kts | 78° |
| 2026-05-09 03:12 | 46.70601 | -123.30340 | 33260 ft | 341 kts | 78° |
| 2026-05-09 03:13 | 46.72042 | -123.20233 | 33243 ft | 342 kts | 77° |
| 2026-05-09 03:13 | 46.72570 | -123.16823 | 32978 ft | 343 kts | 77° |
| 2026-05-09 03:13 | 46.73076 | -123.13386 | 32345 ft | 350 kts | 78° |
| 2026-05-09 03:14 | 46.73571 | -123.09907 | 31718 ft | 357 kts | 78° |
| 2026-05-09 03:14 | 46.74065 | -123.06356 | 31095 ft | 380 kts | 78° |
| 2026-05-09 03:14 | 46.74597 | -123.02484 | 30462 ft | 410 kts | 78° |
| 2026-05-09 03:14 | 46.75154 | -122.98401 | 29836 ft | 434 kts | 78° |
| 2026-05-09 03:15 | 46.75754 | -122.93987 | 29177 ft | 440 kts | 78° |
| 2026-05-09 03:15 | 46.76328 | -122.89745 | 28542 ft | 436 kts | 78° |
| 2026-05-09 03:15 | 46.76921 | -122.85361 | 27882 ft | 431 kts | 78° |
| 2026-05-09 03:15 | 46.77497 | -122.81101 | 27232 ft | 427 kts | 78° |
| 2026-05-09 03:16 | 46.78384 | -122.76975 | 26573 ft | 423 kts | 65° |
| 2026-05-09 03:16 | 46.79885 | -122.73354 | 25927 ft | 419 kts | 52° |
| 2026-05-09 03:16 | 46.81855 | -122.70241 | 25279 ft | 415 kts | 45° |
| 2026-05-09 03:16 | 46.83811 | -122.67509 | 24665 ft | 412 kts | 42° |
| 2026-05-09 03:17 | 46.86116 | -122.64738 | 23983 ft | 408 kts | 37° |
| 2026-05-09 03:17 | 46.88377 | -122.62330 | 23341 ft | 405 kts | 37° |
| 2026-05-09 03:17 | 46.90608 | -122.59832 | 22806 ft | 400 kts | 37° |
| 2026-05-09 03:17 | 46.92918 | -122.57574 | 22362 ft | 391 kts | 30° |
| 2026-05-09 03:18 | 46.95314 | -122.55848 | 21826 ft | 387 kts | 23° |
| 2026-05-09 03:18 | 46.97822 | -122.54434 | 21254 ft | 384 kts | 19° |
| 2026-05-09 03:18 | 47.00365 | -122.53279 | 20693 ft | 381 kts | 16° |
| 2026-05-09 03:18 | 47.02877 | -122.52220 | 20143 ft | 377 kts | 16° |
| 2026-05-09 03:19 | 47.05436 | -122.51111 | 19580 ft | 374 kts | 16° |
| 2026-05-09 03:19 | 47.07896 | -122.50144 | 19035 ft | 368 kts | 12° |
| 2026-05-09 03:19 | 47.10368 | -122.49519 | 18103 ft | 357 kts | 7° |
| 2026-05-09 03:19 | 47.12202 | -122.49214 | 17307 ft | 355 kts | 6° |
| 2026-05-09 03:20 | 47.14617 | -122.48801 | 16489 ft | 348 kts | 7° |
| 2026-05-09 03:20 | 47.16977 | -122.48377 | 15887 ft | 344 kts | 7° |
| 2026-05-09 03:20 | 47.19336 | -122.47950 | 15234 ft | 335 kts | 7° |
| 2026-05-09 03:20 | 47.21617 | -122.47562 | 14579 ft | 322 kts | 6° |
| 2026-05-09 03:21 | 47.23808 | -122.47257 | 13929 ft | 312 kts | 5° |
| 2026-05-09 03:21 | 47.25941 | -122.46946 | 13279 ft | 305 kts | 6° |
| 2026-05-09 03:21 | 47.27608 | -122.46696 | 12762 ft | 301 kts | 5° |
| 2026-05-09 03:21 | 47.29670 | -122.46384 | 12116 ft | 297 kts | 6° |
| 2026-05-09 03:22 | 47.30874 | -122.46198 | 11734 ft | 294 kts | 6° |
| 2026-05-09 03:22 | 47.32756 | -122.45912 | 11119 ft | 289 kts | 6° |
| 2026-05-09 03:22 | 47.34735 | -122.45608 | 10508 ft | 285 kts | 6° |
| 2026-05-09 03:22 | 47.36715 | -122.45429 | 9904 ft | 284 kts | 1° |
| 2026-05-09 03:23 | 47.38690 | -122.45436 | 9305 ft | 283 kts | 359° |
| 2026-05-09 03:23 | 47.40657 | -122.45518 | 8704 ft | 282 kts | 358° |
| 2026-05-09 03:23 | 47.42614 | -122.45574 | 8102 ft | 278 kts | 0° |
| 2026-05-09 03:23 | 47.44547 | -122.45553 | 7497 ft | 275 kts | 0° |
| 2026-05-09 03:24 | 47.46425 | -122.45689 | 6895 ft | 271 kts | 351° |
| 2026-05-09 03:24 | 47.48282 | -122.46103 | 6299 ft | 271 kts | 357° |
| 2026-05-09 03:24 | 47.50155 | -122.46050 | 5703 ft | 266 kts | 3° |
| 2026-05-09 03:24 | 47.51976 | -122.45864 | 5098 ft | 258 kts | 4° |
| 2026-05-09 03:25 | 47.53738 | -122.45681 | 4500 ft | 252 kts | 4° |
| 2026-05-09 03:25 | 47.55479 | -122.45497 | 3897 ft | 247 kts | 4° |
| 2026-05-09 03:25 | 47.57169 | -122.45319 | 3457 ft | 237 kts | 4° |
| 2026-05-09 03:25 | 47.58772 | -122.45147 | 3236 ft | 225 kts | 4° |
| 2026-05-09 03:26 | 47.60171 | -122.44991 | 3152 ft | 217 kts | 6° |
| 2026-05-09 03:26 | 47.61502 | -122.44089 | 3097 ft | 213 kts | 45° |
| 2026-05-09 03:26 | 47.62091 | -122.42135 | 3135 ft | 207 kts | 81° |
| 2026-05-09 03:26 | 47.62160 | -122.40042 | 3176 ft | 202 kts | 88° |
| 2026-05-09 03:27 | 47.62145 | -122.37994 | 3174 ft | 199 kts | 90° |
| 2026-05-09 03:27 | 47.62107 | -122.35987 | 3194 ft | 187 kts | 93° |
| 2026-05-09 03:27 | 47.61779 | -122.34162 | 3148 ft | 181 kts | 118° |
| 2026-05-09 03:27 | 47.60962 | -122.32837 | 3152 ft | 173 kts | 143° |
| 2026-05-09 03:28 | 47.59890 | -122.32121 | 3046 ft | 168 kts | 164° |
| 2026-05-09 03:28 | 47.58738 | -122.31854 | 2830 ft | 166 kts | 173° |
| 2026-05-09 03:28 | 47.57609 | -122.31731 | 2607 ft | 164 kts | 177° |
| 2026-05-09 03:28 | 47.56470 | -122.31706 | 2389 ft | 162 kts | 180° |
| 2026-05-09 03:29 | 47.55333 | -122.31710 | 2185 ft | 161 kts | 180° |
| 2026-05-09 03:29 | 47.54235 | -122.31717 | 1966 ft | 158 kts | 181° |
| 2026-05-09 03:29 | 47.53146 | -122.31726 | 1771 ft | 154 kts | 181° |
| 2026-05-09 03:29 | 47.52090 | -122.31736 | 1558 ft | 150 kts | 181° |
| 2026-05-09 03:30 | 47.51058 | -122.31745 | 1348 ft | 145 kts | 181° |
| 2026-05-09 03:30 | 47.50076 | -122.31753 | 1182 ft | 138 kts | 181° |
| 2026-05-09 03:30 | 47.49125 | -122.31762 | 990 ft | 134 kts | 182° |
| 2026-05-09 03:30 | 47.48199 | -122.31770 | 813 ft | 135 kts | 182° |
| 2026-05-09 03:31 | 47.47237 | -122.31780 | 665 ft | 143 kts | 182° |
| 2026-05-09 03:31 | 47.46255 | -122.31789 | 478 ft | 144 kts | 181° |
| 2026-05-09 03:31 | 47.45414 | -122.31797 | 442 ft | 116 kts | 180° |
| 2026-05-09 03:31 | 47.44823 | -122.31802 | 442 ft | 51 kts | 180° |
| 2026-05-09 03:32 | 47.44534 | -122.31696 | 442 ft | 38 kts | 147° |
| 2026-05-09 03:32 | 47.44328 | -122.31520 | 441 ft | 27 kts | 146° |
| 2026-05-09 03:32 | 47.44228 | -122.31307 | 441 ft | 28 kts | 108° |
| 2026-05-09 03:32 | 47.44135 | -122.31085 | 441 ft | 25 kts | 143° |
| 2026-05-09 03:33 | 47.43987 | -122.30954 | 441 ft | 23 kts | 148° |
| 2026-05-09 03:33 | 47.43907 | -122.30789 | 441 ft | 18 kts | 97° |
| 2026-05-09 03:33 | 47.43956 | -122.30639 | 441 ft | 20 kts | 6° |
| 2026-05-09 03:33 | 47.44112 | -122.30640 | 441 ft | 24 kts | 1° |
| 2026-05-09 03:34 | 47.44263 | -122.30635 | 441 ft | 22 kts | 0° |
| 2026-05-09 03:34 | 47.44416 | -122.30636 | 441 ft | 23 kts | 0° |
| 2026-05-09 03:34 | 47.44577 | -122.30637 | 441 ft | 23 kts | 360° |
| 2026-05-09 03:34 | 47.44738 | -122.30638 | 441 ft | 25 kts | 4° |
| 2026-05-09 03:35 | 47.44906 | -122.30630 | 441 ft | 23 kts | 357° |
| 2026-05-09 03:35 | 47.45012 | -122.30536 | 441 ft | 20 kts | 88° |
| 2026-05-09 03:35 | 47.44997 | -122.30356 | 441 ft | 15 kts | 105° |
| 2026-05-09 03:35 | 47.44981 | -122.30204 | 441 ft | 14 kts | 110° |
| 2026-05-09 03:36 | 47.44928 | -122.30086 | 441 ft | 14 kts | 128° |
| 2026-05-09 03:36 | 47.44857 | -122.30004 | 441 ft | 13 kts | 158° |
| 2026-05-09 03:36 | 47.44771 | -122.29993 | 441 ft | 12 kts | 193° |
| 2026-05-09 03:36 | 47.44704 | -122.30064 | 441 ft | 12 kts | 234° |
| 2026-05-09 03:37 | 47.44678 | -122.30174 | 441 ft | 10 kts | 272° |
| 2026-05-09 03:37 | 47.44709 | -122.30203 | 441 ft | 6 kts | 359° |
| 2026-05-09 03:37 | 47.44737 | -122.30199 | 441 ft | 2 kts | 9° |
| 2026-05-09 03:37 | 47.44742 | -122.30198 | 441 ft | 0 kts | 9° |